Time;durP1;ratioP1;P1;durP2;ratioP2;P2;SDS_P1;SDS_P2;PMS_P1;PMS_P2;Temp;Humidity;BMP_temperature;BMP_pressure;BME280_temperature;BME280_humidity;BME280_pressure;Samples;Min_cycle;Max_cycle;Signal;HPM_P1;HPM_P2
2022/03/31 00:00:41;;;;;;;10.17;4.97;;;12.90;77.60;;;11.53;62.00;98487.63;10410416;27;96526;-84
2022/03/31 00:05:47;;;;;;;9.73;4.60;;;13.00;78.00;;;11.53;62.23;98471.66;10434682;27;96600;-84
2022/03/31 00:10:55;;;;;;;10.20;4.37;;;13.00;78.10;;;11.49;62.46;98473.13;10436431;27;96590;-87
2022/03/31 00:15:59;;;;;;;14.47;5.40;;;13.00;78.50;;;11.45;62.71;98463.13;10443967;27;98135;-87
2022/03/31 00:21:02;;;;;;;15.13;5.20;;;12.90;78.70;;;11.41;63.05;98457.44;10420806;27;97019;-87
2022/03/31 00:26:05;;;;;;;17.07;7.03;;;12.90;79.30;;;11.35;63.58;98466.28;10420302;27;96548;-88
2022/03/31 00:31:08;;;;;;;14.43;5.90;;;12.80;80.20;;;11.32;63.58;98455.22;10436213;27;96458;-88
2022/03/31 00:36:13;;;;;;;14.27;6.47;;;12.80;79.90;;;11.26;64.15;98455.06;10430337;27;96567;-88
2022/03/31 00:41:16;;;;;;;18.90;7.47;;;12.80;80.80;;;11.22;64.77;98456.53;10418055;27;96865;-88
2022/03/31 00:46:22;;;;;;;15.87;6.13;;;12.70;81.70;;;11.20;64.52;98445.28;10417474;27;96485;-88
2022/03/31 00:51:25;;;;;;;19.83;6.00;;;12.70;81.80;;;11.19;64.77;98442.84;10419446;27;96463;-88
2022/03/31 00:56:28;;;;;;;12.07;5.50;;;12.70;82.10;;;11.18;65.21;98439.38;10401132;27;96587;-88
2022/03/31 01:01:33;;;;;;;14.30;5.43;;;12.70;82.90;;;11.16;65.75;98435.31;10427824;27;96882;-87
2022/03/31 01:06:36;;;;;;;13.67;4.50;;;12.60;84.90;;;11.16;65.85;98425.50;10422137;27;96604;-88
2022/03/31 01:11:39;;;;;;;12.53;5.07;;;12.60;84.80;;;11.16;65.75;98428.16;10451440;27;96386;-84
2022/03/31 01:16:42;;;;;;;9.93;5.33;;;12.60;86.10;;;11.17;65.74;98413.81;10436756;27;96523;-86
2022/03/31 01:21:46;;;;;;;15.53;5.97;;;12.60;87.70;;;11.19;65.94;98400.31;10402194;28;96516;-87
2022/03/31 01:26:49;;;;;;;13.20;5.60;;;12.60;88.30;;;11.20;65.87;98401.94;10454739;27;96527;-84
2022/03/31 01:31:51;;;;;;;13.20;5.67;;;12.60;88.20;;;11.20;65.88;98393.97;10416479;27;96528;-84
2022/03/31 01:36:54;;;;;;;12.27;5.60;;;12.60;88.70;;;11.21;66.18;98396.38;10399143;28;96505;-84
2022/03/31 01:41:58;;;;;;;16.03;6.23;;;12.60;89.30;;;11.20;65.96;98386.78;10417174;27;96515;-84
2022/03/31 01:47:02;;;;;;;14.03;8.07;;;12.60;89.90;;;11.20;66.19;98380.66;10410318;27;96689;-83
2022/03/31 01:52:06;;;;;;;15.87;5.77;;;12.60;90.40;;;11.21;66.34;98382.28;10415284;27;96574;-85
2022/03/31 01:57:09;;;;;;;11.73;6.03;;;12.60;90.60;;;11.21;66.21;98392.91;10403480;27;96508;-86
2022/03/31 02:02:13;;;;;;;15.77;6.47;;;12.60;90.70;;;11.21;66.31;98385.75;10437385;27;96446;-85
2022/03/31 02:07:16;;;;;;;20.83;6.60;;;12.60;90.90;;;11.21;66.67;98380.44;10440634;27;96343;-85
2022/03/31 02:12:19;;;;;;;13.90;6.07;;;12.60;91.40;;;11.20;66.67;98376.16;10445820;27;96610;-81
2022/03/31 02:17:22;;;;;;;11.17;5.90;;;12.60;91.80;;;11.19;66.75;98379.84;10443060;27;96566;-86
2022/03/31 02:22:25;;;;;;;14.70;6.67;;;12.60;91.70;;;11.18;66.64;98374.75;10418448;27;96685;-86
2022/03/31 02:27:28;;;;;;;13.00;6.23;;;12.60;91.80;;;11.16;66.94;98369.66;10455890;27;96487;-87
2022/03/31 02:32:31;;;;;;;15.00;6.37;;;12.50;92.20;;;11.13;66.95;98348.81;10401069;27;96637;-87
2022/03/31 02:37:34;;;;;;;16.60;6.80;;;12.50;92.60;;;11.10;67.01;98359.09;10378930;28;96519;-87
2022/03/31 02:42:38;;;;;;;14.57;6.60;;;12.50;92.90;;;11.08;67.13;98350.50;10391373;27;96477;-87
2022/03/31 02:47:44;;;;;;;20.33;7.43;;;12.50;92.90;;;11.06;67.26;98348.06;10462916;27;96556;-87
2022/03/31 02:58:10;;;;;;;;;;;12.50;93.00;;;11.01;67.46;98347.06;10425338;27;96517;-86
2022/03/31 03:03:13;;;;;;;23.70;8.27;;;12.40;94.40;;;10.96;67.47;98345.88;10409656;27;98192;-83
2022/03/31 03:08:16;;;;;;;14.90;8.50;;;12.40;93.50;;;10.95;67.61;98357.53;10379068;28;96563;-84
2022/03/31 03:13:20;;;;;;;16.37;7.10;;;12.40;93.60;;;10.96;67.48;98337.88;10391723;28;96515;-84
2022/03/31 03:18:23;;;;;;;15.47;7.20;;;12.40;93.40;;;10.95;67.51;98338.94;10403950;28;97133;-84
2022/03/31 03:23:26;;;;;;;18.60;8.00;;;12.40;93.10;;;10.96;67.24;98335.22;10384813;27;96695;-83
2022/03/31 03:28:30;;;;;;;23.27;7.50;;;12.40;93.10;;;10.95;67.29;98325.63;10400971;28;96435;-84
2022/03/31 03:33:34;;;;;;;17.33;6.87;;;12.40;93.40;;;10.92;67.46;98320.78;10405655;28;96680;-83
2022/03/31 03:38:41;;;;;;;17.37;8.17;;;12.40;93.40;;;10.88;67.66;98319.56;10376630;28;96864;-83
2022/03/31 03:43:44;;;;;;;14.20;7.53;;;12.30;93.50;;;10.87;67.71;98327.75;10394319;28;96796;-84
2022/03/31 03:48:47;;;;;;;13.53;7.47;;;12.30;93.50;;;10.83;67.62;98327.38;10385313;27;96656;-83
2022/03/31 03:53:52;;;;;;;13.77;6.10;;;12.30;93.40;;;10.82;67.97;98320.41;10377649;28;96413;-82
2022/03/31 03:58:54;;;;;;;21.47;8.03;;;12.30;93.40;;;10.82;67.85;98316.97;10376311;28;96823;-83
2022/03/31 04:03:57;;;;;;;15.27;7.50;;;12.30;93.30;;;10.81;67.86;98313.47;10383243;28;96453;-84
2022/03/31 04:09:00;;;;;;;16.87;8.30;;;12.30;93.30;;;10.77;68.05;98304.31;10412866;27;96621;-82
2022/03/31 04:14:03;;;;;;;16.17;8.10;;;12.30;93.40;;;10.74;68.05;98304.75;10390681;28;96769;-82
2022/03/31 04:19:08;;;;;;;17.40;6.83;;;12.20;93.50;;;10.68;68.40;98300.31;10386115;28;98190;-81
2022/03/31 04:24:10;;;;;;;11.83;7.00;;;12.20;93.90;;;10.62;68.75;98298.50;10377239;28;96431;-82
2022/03/31 04:29:14;;;;;;;17.80;6.60;;;12.10;94.00;;;10.57;69.06;98291.16;10385577;28;96614;-81
2022/03/31 04:34:19;;;;;;;12.20;6.40;;;12.10;94.00;;;10.54;69.19;98286.25;10413950;28;97639;-82
2022/03/31 04:39:22;;;;;;;18.47;8.40;;;12.10;94.10;;;10.50;69.75;98294.91;10391690;28;96706;-79
2022/03/31 04:44:25;;;;;;;16.77;8.23;;;12.00;94.90;;;10.48;69.68;98288.97;10383325;28;96690;-82
2022/03/31 04:49:28;;;;;;;15.70;7.30;;;12.00;94.70;;;10.48;69.20;98294.28;10391838;27;96478;-82
2022/03/31 04:54:31;;;;;;;16.27;7.30;;;12.00;94.80;;;10.44;69.63;98286.75;10376260;28;96550;-82
2022/03/31 04:59:35;;;;;;;13.23;6.77;;;12.00;94.90;;;10.45;69.81;98282.25;10376944;28;96529;-82
2022/03/31 05:04:39;;;;;;;16.50;7.53;;;12.00;95.30;;;10.48;69.92;98291.63;10374909;28;96512;-79
2022/03/31 05:09:42;;;;;;;13.40;6.70;;;11.90;95.40;;;10.47;69.47;98282.03;10423563;27;97471;-82
2022/03/31 05:14:45;;;;;;;17.87;8.20;;;12.00;95.20;;;10.48;70.01;98296.94;10403257;27;97132;-80
2022/03/31 05:19:48;;;;;;;18.03;7.63;;;12.00;95.40;;;10.48;70.48;98296.94;10400856;28;96626;-79
2022/03/31 05:24:51;;;;;;;17.00;8.20;;;12.00;95.90;;;10.44;70.78;98297.38;10410463;28;97192;-81
2022/03/31 05:29:54;;;;;;;17.60;8.53;;;11.90;95.90;;;10.43;70.98;98290.44;10428830;27;96541;-79
2022/03/31 05:34:57;;;;;;;14.33;8.37;;;11.90;96.10;;;10.39;71.61;98297.19;10440438;27;97083;-78
2022/03/31 05:40:06;;;;;;;24.40;9.93;;;11.90;96.50;;;10.38;72.14;98292.09;10429546;27;96412;-80
2022/03/31 05:45:12;;;;;;;20.13;10.53;;;11.90;97.20;;;10.39;72.52;98293.72;10386118;27;96465;-81
2022/03/31 05:50:15;;;;;;;19.03;10.27;;;11.90;97.40;;;10.41;72.81;98297.78;10415776;27;96511;-81
2022/03/31 05:55:19;;;;;;;18.27;9.87;;;11.90;97.70;;;10.40;73.54;98296.16;10402272;28;96597;-80
2022/03/31 06:00:22;;;;;;;15.07;9.50;;;11.90;97.90;;;10.42;73.87;98291.44;10426290;27;96515;-80
2022/03/31 06:05:25;;;;;;;19.87;9.83;;;11.90;98.20;;;10.47;74.10;98292.66;10439281;27;96611;-80
2022/03/31 06:10:29;;;;;;;17.93;8.47;;;12.00;98.40;;;10.51;74.20;98297.34;10428205;27;96722;-81
2022/03/31 06:15:34;;;;;;;16.07;9.03;;;12.00;98.90;;;10.54;74.17;98304.03;10429072;27;97265;-80
2022/03/31 06:20:37;;;;;;;19.00;9.60;;;12.00;99.10;;;10.58;74.16;98299.94;10429127;27;97443;-80
2022/03/31 06:25:44;;;;;;;16.27;9.20;;;12.00;99.90;;;10.58;74.61;98297.28;10422324;28;96444;-81
2022/03/31 06:30:48;;;;;;;15.87;9.03;;;12.00;99.90;;;10.56;74.91;98297.50;10422984;28;97366;-82
2022/03/31 06:35:51;;;;;;;16.13;8.27;;;12.00;99.90;;;10.50;75.15;98302.88;10435515;27;97111;-80
2022/03/31 06:41:06;;;;;;;18.97;10.40;;;11.90;99.90;;;10.44;75.55;98310.66;10421432;28;96747;-79
2022/03/31 06:46:13;;;;;;;24.97;10.50;;;11.90;99.90;;;10.43;75.87;98317.00;10433729;27;96549;-81
2022/03/31 06:51:16;;;;;;;24.27;12.53;;;11.90;99.90;;;10.44;76.02;98317.81;10427968;27;96577;-84
2022/03/31 06:56:20;;;;;;;26.13;11.17;;;11.90;99.90;;;10.40;76.15;98322.72;10410893;27;96635;-79
2022/03/31 07:01:23;;;;;;;21.97;13.47;;;11.90;99.90;;;10.38;77.04;98332.75;10422776;27;96577;-78
2022/03/31 07:06:27;;;;;;;22.03;12.47;;;11.90;99.90;;;10.37;77.34;98328.44;10440337;27;97168;-77
2022/03/31 07:11:30;;;;;;;23.13;12.97;;;11.90;99.90;;;10.33;78.09;98323.78;10419371;27;96813;-77
2022/03/31 07:16:36;;;;;;;20.80;12.30;;;11.90;99.90;;;10.29;78.78;98327.88;10419952;27;96978;-78
2022/03/31 07:21:39;;;;;;;24.73;12.20;;;11.90;99.90;;;10.26;79.54;98318.50;10435215;27;96597;-78
2022/03/31 07:26:42;;;;;;;24.00;12.33;;;11.80;99.90;;;10.23;80.24;98318.06;10403547;28;97512;-77
2022/03/31 07:31:45;;;;;;;22.47;12.47;;;11.70;99.90;;;10.17;80.86;98317.06;10417295;27;96560;-77
2022/03/31 07:36:48;;;;;;;21.43;13.33;;;11.60;99.90;;;10.14;81.57;98322.81;10444056;27;96519;-77
2022/03/31 07:41:51;;;;;;;21.83;12.57;;;11.60;99.90;;;10.12;82.09;98320.34;10394944;27;96628;-78
2022/03/31 07:46:56;;;;;;;22.57;14.00;;;11.60;99.90;;;10.12;82.85;98319.53;10421212;27;96696;-77
2022/03/31 07:51:59;;;;;;;24.73;13.27;;;11.50;99.90;;;10.10;83.44;98319.75;10402227;27;96597;-78
2022/03/31 07:57:02;;;;;;;21.57;12.43;;;11.50;99.90;;;10.04;83.55;98317.13;10419523;28;97146;-77
2022/03/31 08:02:05;;;;;;;25.50;15.37;;;11.40;99.90;;;10.04;84.23;98317.94;10403424;28;96561;-78
2022/03/31 08:07:08;;;;;;;23.77;13.87;;;11.40;99.90;;;10.11;84.68;98313.44;10425435;27;96614;-78
2022/03/31 08:12:12;;;;;;;21.87;13.73;;;11.50;99.90;;;10.20;84.98;98316.66;10457977;27;96521;-81
2022/03/31 08:17:15;;;;;;;28.83;14.70;;;11.50;99.90;;;10.28;85.39;98316.44;10432326;27;96567;-84
2022/03/31 08:22:18;;;;;;;20.70;13.77;;;11.60;99.90;;;10.34;85.67;98307.63;10408993;27;96623;-84
2022/03/31 08:27:21;;;;;;;27.33;18.17;;;11.60;99.90;;;10.36;85.60;98310.88;10419368;27;96674;-85
2022/03/31 08:32:25;;;;;;;34.03;17.80;;;11.60;99.90;;;10.26;85.73;98302.59;10416649;27;96616;-85
2022/03/31 08:37:28;;;;;;;20.63;13.43;;;11.60;99.90;;;10.21;86.37;98291.75;10422860;27;96689;-87
2022/03/31 08:42:31;;;;;;;28.67;14.00;;;11.60;99.90;;;10.11;86.59;98299.34;10430867;27;96382;-87
2022/03/31 08:47:37;;;;;;;25.70;15.53;;;11.50;99.90;;;10.10;87.20;98290.56;10443514;27;98244;-88
2022/03/31 08:52:55;;;;;;;28.53;16.30;;;11.40;99.90;;;10.08;87.76;98286.50;10444255;27;96736;-89
2022/03/31 08:57:58;;;;;;;27.20;14.93;;;11.40;99.90;;;10.03;88.13;98267.75;10425181;27;96522;-90
2022/03/31 09:03:07;;;;;;;23.90;14.27;;;11.40;99.90;;;10.03;88.34;98262.44;10441686;27;96494;-89
2022/03/31 09:08:13;;;;;;;35.10;20.47;;;11.50;99.90;;;10.00;88.81;98252.22;10425394;27;96986;-89
2022/03/31 09:13:28;;;;;;;18.07;12.43;;;11.40;99.90;;;9.95;88.95;98249.41;10427572;28;96584;-90
2022/03/31 09:18:34;;;;;;;27.50;14.83;;;11.30;99.90;;;9.99;89.83;98245.31;10447417;27;96444;-91
2022/03/31 09:23:46;;;;;;;30.37;16.70;;;11.30;99.90;;;10.01;90.25;98243.25;10439834;27;96455;-91
2022/03/31 09:28:50;;;;;;;27.90;15.83;;;11.30;99.90;;;10.05;90.29;98242.63;10428332;27;97019;-91
2022/03/31 09:33:58;;;;;;;28.20;15.77;;;11.40;99.90;;;10.05;90.88;98232.00;10432404;27;96768;-91
2022/03/31 09:39:13;;;;;;;23.80;14.57;;;11.40;99.90;;;10.02;90.66;98221.81;10428810;27;97069;-91
2022/03/31 09:44:22;;;;;;;25.37;15.63;;;11.40;99.90;;;9.95;90.83;98213.06;10433435;27;96721;-90
2022/03/31 09:49:27;;;;;;;43.37;24.40;;;11.30;99.90;;;9.84;91.37;98206.59;10405438;28;96636;-87
2022/03/31 09:54:33;;;;;;;38.83;21.40;;;11.20;99.90;;;9.78;91.50;98202.16;10430521;27;96612;-88
2022/03/31 09:59:39;;;;;;;29.77;17.60;;;11.20;99.90;;;9.69;91.69;98207.91;10430566;27;98101;-85
2022/03/31 10:04:46;;;;;;;24.40;15.37;;;11.10;99.90;;;9.62;92.05;98213.22;10399157;27;97413;-86
2022/03/31 10:09:50;;;;;;;26.27;15.00;;;11.10;99.90;;;9.54;92.69;98197.56;10448345;27;96686;-88
2022/03/31 10:14:59;;;;;;;29.73;15.83;;;11.00;99.90;;;9.55;93.32;98189.38;10439796;27;96530;-89
2022/03/31 10:20:15;;;;;;;25.47;13.17;;;11.00;99.90;;;9.50;93.53;98177.78;10399401;28;96918;-90
2022/03/31 10:25:18;;;;;;;31.33;14.77;;;10.90;99.90;;;9.48;94.31;98178.00;10446808;27;96520;-86
2022/03/31 10:30:25;;;;;;;28.83;15.63;;;10.90;99.90;;;9.51;94.63;98174.09;10449936;27;97002;-88
2022/03/31 10:35:33;;;;;;;31.07;16.00;;;10.90;99.90;;;9.49;94.76;98171.66;10403045;27;97141;-89
2022/03/31 10:40:44;;;;;;;24.27;16.33;;;10.90;99.90;;;9.46;94.98;98171.25;10413272;28;96571;-86
2022/03/31 10:45:51;;;;;;;25.33;17.73;;;10.90;99.90;;;9.46;95.53;98172.06;10412178;27;96480;-85
2022/03/31 10:51:11;;;;;;;39.23;19.53;;;10.90;99.90;;;9.47;95.71;98176.34;10456776;27;96709;-86
2022/03/31 10:56:24;;;;;;;27.20;18.50;;;10.90;99.90;;;9.43;96.10;98172.50;10392262;27;96477;-86
2022/03/31 11:01:31;;;;;;;35.33;21.90;;;10.90;99.90;;;9.42;96.43;98149.69;10416054;27;97210;-87
2022/03/31 11:06:49;;;;;;;38.63;23.03;;;10.90;99.90;;;9.44;96.73;98146.81;10466913;27;96637;-87
2022/03/31 11:11:55;;;;;;;39.03;21.90;;;10.90;99.90;;;9.51;97.37;98143.09;10465437;27;97360;-88
2022/03/31 11:16:58;;;;;;;34.53;18.97;;;10.90;99.90;;;9.56;97.70;98129.22;10406388;27;96880;-87
2022/03/31 11:22:02;;;;;;;28.80;19.17;;;11.00;99.90;;;9.57;97.70;98125.53;10420742;27;96444;-89
2022/03/31 11:27:05;;;;;;;25.80;17.37;;;11.00;99.90;;;9.58;98.13;98112.06;10403568;28;96580;-91
2022/03/31 11:32:08;;;;;;;43.43;27.27;;;11.00;99.90;;;9.63;98.36;98127.34;10413697;27;96502;-89
2022/03/31 11:37:17;;;;;;;31.83;16.83;;;11.00;99.90;;;9.66;98.61;98113.66;10409440;28;96587;-89
2022/03/31 11:42:21;;;;;;;29.63;18.73;;;11.10;99.90;;;9.64;98.71;98115.69;10416160;27;96552;-88
2022/03/31 11:47:24;;;;;;;32.73;19.10;;;11.10;99.90;;;9.63;99.07;98109.59;10443179;27;96708;-88
2022/03/31 11:52:32;;;;;;;32.67;19.73;;;11.10;99.90;;;9.65;98.94;98101.41;10399263;27;96587;-90
2022/03/31 11:57:35;;;;;;;33.63;20.40;;;11.10;99.90;;;9.69;99.28;98101.81;10433972;27;96517;-90
2022/03/31 12:02:38;;;;;;;28.57;18.10;;;11.10;99.90;;;9.72;99.34;98085.47;10372767;28;96516;-90
2022/03/31 12:07:41;;;;;;;27.93;18.47;;;11.20;99.90;;;9.74;99.50;98094.03;10432448;27;96616;-89
2022/03/31 12:12:56;;;;;;;34.33;18.30;;;11.20;99.90;;;9.68;99.34;98084.28;10395074;28;96598;-89
2022/03/31 12:18:11;;;;;;;32.47;19.10;;;11.20;99.90;;;9.65;99.62;98064.28;10382525;27;96591;-88
2022/03/31 12:23:21;;;;;;;33.70;17.20;;;11.10;99.90;;;9.64;99.66;98049.41;10410835;27;96586;-87
2022/03/31 12:28:25;;;;;;;41.00;21.93;;;11.10;99.90;;;9.60;99.54;98050.88;10407714;27;96587;-87
2022/03/31 12:33:34;;;;;;;41.83;22.50;;;11.00;99.90;;;9.61;99.81;98041.88;10391973;28;96622;-88
2022/03/31 12:38:50;;;;;;;28.17;19.50;;;11.00;99.90;;;9.57;99.89;98030.06;10399995;28;97270;-86
2022/03/31 12:44:08;;;;;;;35.43;20.57;;;11.00;99.90;;;9.63;100.00;98024.72;10463917;27;97930;-87
2022/03/31 12:49:14;;;;;;;27.50;17.17;;;11.00;99.90;;;9.75;100.00;98027.50;10437962;27;96575;-87
2022/03/31 12:54:29;;;;;;;32.43;18.80;;;11.10;99.90;;;9.79;100.00;98039.31;10408337;27;96615;-86
2022/03/31 12:59:35;;;;;;;36.87;21.60;;;11.10;99.90;;;9.79;100.00;98031.34;10415397;28;96926;-87
2022/03/31 13:04:43;;;;;;;31.77;20.90;;;11.20;99.90;;;9.73;100.00;98024.25;10415578;27;96736;-87
2022/03/31 13:09:47;;;;;;;28.20;18.90;;;11.10;99.90;;;9.67;100.00;98027.78;10409371;27;96617;-88
2022/03/31 13:14:50;;;;;;;27.47;17.67;;;11.10;99.90;;;9.57;99.91;98030.88;10404409;28;96831;-86
2022/03/31 13:19:53;;;;;;;30.87;17.50;;;11.00;99.90;;;9.54;100.00;98022.56;10369584;28;96758;-86
2022/03/31 13:24:56;;;;;;;29.53;16.37;;;11.00;99.90;;;9.50;100.00;98021.34;10374032;28;96581;-87
2022/03/31 13:29:59;;;;;;;27.80;18.80;;;10.90;99.90;;;9.43;100.00;98007.34;10377410;28;96603;-87
2022/03/31 13:35:05;;;;;;;28.57;16.67;;;10.90;99.90;;;9.39;100.00;97997.16;10365438;28;96484;-88
2022/03/31 13:40:11;;;;;;;27.20;17.60;;;10.80;99.90;;;9.35;100.00;98000.44;10392679;28;96566;-90
2022/03/31 13:45:15;;;;;;;27.47;15.27;;;10.80;99.90;;;9.28;100.00;97989.06;10369497;28;98149;-89
2022/03/31 13:50:20;;;;;;;27.47;15.90;;;10.70;99.90;;;9.20;100.00;97995.44;10399543;28;96529;-89
2022/03/31 13:55:23;;;;;;;31.87;17.03;;;10.70;99.90;;;9.14;100.00;97998.94;10369736;28;98248;-90
2022/03/31 14:05:51;;;;;;;;;;;10.50;99.90;;;9.07;100.00;97976.97;10404217;27;96575;-90
2022/03/31 14:10:55;;;;;;;30.73;17.63;;;10.50;99.90;;;9.03;100.00;97949.25;10437480;27;96511;-89
2022/03/31 14:16:02;;;;;;;36.20;18.67;;;10.50;99.90;;;9.03;100.00;97944.78;10399677;27;96545;-86
2022/03/31 14:21:06;;;;;;;34.23;19.57;;;10.50;99.90;;;9.06;100.00;97935.59;10427435;27;96682;-85
2022/03/31 14:26:10;;;;;;;32.47;17.60;;;10.50;99.90;;;9.08;100.00;97939.66;10449118;27;96494;-85
2022/03/31 14:31:23;;;;;;;28.80;16.73;;;10.50;99.90;;;9.06;100.00;97927.66;10459651;27;96536;-87
2022/03/31 14:36:38;;;;;;;36.77;19.10;;;10.50;99.90;;;9.06;100.00;97927.66;10423587;27;96576;-91
2022/03/31 14:41:44;;;;;;;22.20;14.00;;;10.50;99.90;;;9.03;100.00;97920.13;10404449;27;96442;-88
2022/03/31 14:46:47;;;;;;;31.93;16.07;;;10.50;99.90;;;8.99;100.00;97906.47;10389126;27;96589;-90
2022/03/31 14:51:51;;;;;;;29.10;16.77;;;10.50;99.90;;;8.99;100.00;97900.38;10385967;27;96662;-88
2022/03/31 14:56:55;;;;;;;29.33;16.80;;;10.40;99.90;;;8.99;100.00;97910.97;10416543;27;98495;-88
2022/03/31 15:02:24;;;;;;;28.37;13.67;;;10.40;99.90;;;8.98;100.00;97896.91;10396372;28;96740;-82
2022/03/31 15:07:28;;;;;;;38.07;22.53;;;10.50;99.90;;;8.98;100.00;97890.81;10387083;28;97183;-81
2022/03/31 15:17:52;;;;;;;51.20;28.58;;;10.40;99.90;;;8.95;100.00;97875.34;10371373;28;96601;-81
2022/03/31 15:22:55;;;;;;;42.20;20.87;;;10.40;99.90;;;8.92;100.00;97867.81;10416142;28;96626;-81
2022/03/31 15:27:58;;;;;;;41.97;23.13;;;10.40;99.90;;;8.91;100.00;97859.06;10418049;28;96619;-81
2022/03/31 15:33:02;;;;;;;49.70;26.67;;;10.40;99.90;;;8.90;100.00;97851.34;10389956;28;96739;-81
2022/03/31 15:38:06;;;;;;;70.87;34.50;;;10.40;99.90;;;8.91;100.00;97845.03;10388999;28;96578;-80
2022/03/31 15:43:10;;;;;;;35.03;19.77;;;10.40;99.90;;;8.92;100.00;97844.00;10360078;28;96507;-80
2022/03/31 15:48:13;;;;;;;42.63;22.73;;;10.40;99.90;;;8.92;100.00;97838.69;10378191;28;96652;-79
2022/03/31 15:53:17;;;;;;;40.67;23.00;;;10.40;99.90;;;8.94;100.00;97839.31;10375720;28;96468;-80
2022/03/31 15:58:20;;;;;;;39.50;22.37;;;10.40;99.90;;;8.93;100.00;97835.00;10361511;28;96646;-80
2022/03/31 16:03:24;;;;;;;39.83;22.53;;;10.40;99.90;;;8.93;100.00;97833.16;10333179;28;96685;-81
2022/03/31 16:08:27;;;;;;;42.67;21.63;;;10.40;99.90;;;8.95;100.00;97828.50;10417232;28;97846;-80
2022/03/31 16:13:31;;;;;;;49.27;26.03;;;10.40;99.90;;;8.97;100.00;97820.31;10415631;28;96398;-79
2022/03/31 16:18:35;;;;;;;43.70;25.43;;;10.40;99.90;;;8.97;100.00;97812.38;10308061;28;96716;-81
2022/03/31 16:23:44;;;;;;;57.97;28.37;;;10.50;99.90;;;8.98;100.00;97806.03;10369382;28;98241;-79
2022/03/31 16:28:50;;;;;;;52.50;30.73;;;10.50;99.90;;;8.96;100.00;97811.56;10375577;28;96878;-79
2022/03/31 16:33:53;;;;;;;57.93;32.07;;;10.50;99.90;;;8.97;100.00;97801.78;10388110;28;96732;-79
2022/03/31 16:38:57;;;;;;;40.83;24.53;;;10.50;99.90;;;8.93;100.00;97787.34;10383047;28;96722;-79
2022/03/31 16:44:00;;;;;;;37.13;24.33;;;10.40;99.90;;;8.93;100.00;97789.97;10372979;28;96562;-79
2022/03/31 16:49:04;;;;;;;56.30;27.27;;;10.40;99.90;;;8.94;100.00;97791.63;10380615;28;96520;-79
2022/03/31 16:54:07;;;;;;;64.33;30.80;;;10.40;99.90;;;8.97;100.00;97791.19;10371160;28;97660;-80
2022/03/31 16:59:11;;;;;;;44.47;25.90;;;10.50;99.90;;;8.98;100.00;97788.31;10362332;28;96749;-81
2022/03/31 17:04:14;;;;;;;32.77;18.57;;;10.50;99.90;;;9.00;100.00;97777.53;10384241;28;96658;-81
2022/03/31 17:09:17;;;;;;;34.40;19.77;;;10.50;99.90;;;9.00;100.00;97766.94;10415376;28;97559;-80
2022/03/31 17:14:22;;;;;;;39.83;20.57;;;10.50;99.90;;;9.01;100.00;97771.19;10414794;28;96564;-81
2022/03/31 17:19:25;;;;;;;47.17;25.40;;;10.50;99.90;;;9.02;100.00;97767.50;10407245;28;96850;-81
2022/03/31 17:24:28;;;;;;;64.97;32.23;;;10.50;99.90;;;9.03;100.00;97771.78;10389272;28;96502;-81
2022/03/31 17:29:31;;;;;;;44.67;25.83;;;10.50;99.90;;;9.08;100.00;97774.59;10401056;28;96434;-81
2022/03/31 17:34:34;;;;;;;43.13;25.77;;;10.60;99.90;;;9.09;100.00;97773.56;10396879;28;96511;-80
2022/03/31 17:39:37;;;;;;;39.93;24.80;;;10.60;99.90;;;9.08;100.00;97770.09;10396520;28;97581;-80
2022/03/31 17:44:41;;;;;;;29.47;20.30;;;10.60;99.90;;;9.10;100.00;97754.78;10331265;28;96442;-80
2022/03/31 17:49:43;;;;;;;29.53;18.33;;;10.60;99.90;;;9.15;100.00;97748.03;10394342;28;96621;-80
2022/03/31 17:54:47;;;;;;;28.03;18.07;;;10.60;99.90;;;9.18;100.00;97756.38;10379189;28;96601;-79
2022/03/31 17:59:50;;;;;;;31.80;19.67;;;10.60;99.90;;;9.20;100.00;97770.19;10398085;27;96712;-79
2022/03/31 18:04:53;;;;;;;26.40;18.07;;;10.60;99.90;;;9.22;100.00;97768.13;10362962;28;96879;-81
2022/03/31 18:09:57;;;;;;;26.23;16.27;;;10.70;99.90;;;9.23;100.00;97759.16;10363034;28;99794;-79
2022/03/31 18:15:00;;;;;;;26.13;17.03;;;10.70;99.90;;;9.23;100.00;97761.78;10359259;28;98091;-78
2022/03/31 18:20:06;;;;;;;25.00;16.47;;;10.70;99.90;;;9.25;100.00;97757.09;10337056;28;98720;-78
2022/03/31 18:25:14;;;;;;;27.70;16.17;;;10.70;99.90;;;9.27;100.00;97759.53;10372256;28;96800;-78
2022/03/31 18:35:43;;;;;;;22.90;15.23;;;10.70;99.90;;;9.29;100.00;97752.16;10379330;28;97118;-78
2022/03/31 18:40:48;;;;;;;20.93;14.53;;;10.80;99.90;;;9.30;100.00;97762.56;10377879;28;96493;-78
2022/03/31 18:45:51;;;;;;;21.27;14.47;;;10.80;99.90;;;9.32;100.00;97762.34;10366607;28;97107;-78
2022/03/31 18:50:54;;;;;;;31.13;17.70;;;10.80;99.90;;;9.31;100.00;97761.53;10359302;28;96675;-78
2022/03/31 18:55:57;;;;;;;25.87;15.83;;;10.80;99.90;;;9.33;100.00;97767.41;10377110;28;97253;-78
2022/03/31 19:01:07;;;;;;;21.73;14.20;;;10.80;99.90;;;9.34;100.00;97769.03;10387353;28;97299;-78
2022/03/31 19:11:32;;;;;;;26.63;17.73;;;10.80;99.90;;;9.37;100.00;97758.00;10382770;28;97992;-80
2022/03/31 19:16:35;;;;;;;30.87;17.03;;;10.80;99.90;;;9.39;100.00;97761.25;10383813;28;97841;-78
2022/03/31 19:21:38;;;;;;;24.03;15.10;;;10.90;99.90;;;9.42;100.00;97759.19;10375339;28;96587;-78
2022/03/31 19:26:44;;;;;;;24.90;15.83;;;10.90;99.90;;;9.43;100.00;97761.63;10378053;28;96759;-78
2022/03/31 19:31:47;;;;;;;25.90;17.30;;;10.90;99.90;;;9.46;100.00;97758.50;10379542;28;96529;-77
2022/03/31 19:36:50;;;;;;;26.03;16.07;;;10.90;99.90;;;9.48;100.00;97759.13;10359180;28;96520;-78
2022/03/31 19:42:13;;;;;;;19.53;12.40;;;10.90;99.90;;;9.50;100.00;97757.06;10361147;28;98459;-78
2022/03/31 19:47:16;;;;;;;24.07;15.33;;;11.00;99.90;;;9.52;100.00;97751.53;10401410;28;96500;-78
2022/03/31 19:52:19;;;;;;;42.63;23.20;;;11.00;99.90;;;9.54;100.00;97749.47;10380683;28;96495;-78
2022/03/31 19:57:23;;;;;;;54.43;26.30;;;11.00;99.90;;;9.56;100.00;97745.56;10391338;27;96734;-78
2022/03/31 20:02:26;;;;;;;33.53;20.00;;;11.00;99.90;;;9.58;100.00;97742.69;10380272;28;96652;-78
2022/03/31 20:07:29;;;;;;;28.47;18.60;;;11.00;99.90;;;9.58;100.00;97732.09;10388599;27;96563;-79
2022/03/31 20:12:33;;;;;;;23.60;14.90;;;11.10;99.90;;;9.57;100.00;97722.50;10394450;27;97303;-78
2022/03/31 20:17:36;;;;;;;28.90;18.87;;;11.10;99.90;;;9.57;100.00;97739.22;10388927;28;99159;-78
2022/03/31 20:22:39;;;;;;;26.33;16.50;;;11.10;99.90;;;9.58;100.00;97724.13;10390205;28;96518;-78
2022/03/31 20:27:44;;;;;;;26.37;16.27;;;11.00;99.90;;;9.59;100.00;97717.78;10401810;27;97300;-78
2022/03/31 20:32:48;;;;;;;29.03;17.57;;;11.10;99.90;;;9.60;100.00;97714.94;10379967;28;96553;-78
2022/03/31 20:37:51;;;;;;;26.47;16.30;;;11.10;99.90;;;9.60;100.00;97716.78;10366503;28;96616;-78
2022/03/31 20:42:55;;;;;;;26.20;18.07;;;11.10;99.90;;;9.60;100.00;97717.59;10378233;28;96539;-78
2022/03/31 20:47:58;;;;;;;30.47;19.00;;;11.10;99.90;;;9.63;100.00;97717.13;10393389;28;96534;-79
2022/03/31 20:53:07;;;;;;;34.67;21.37;;;11.10;99.90;;;9.65;100.00;97706.28;10341181;28;96613;-79
2022/03/31 20:58:10;;;;;;;26.73;17.33;;;11.10;99.90;;;9.67;100.00;97708.75;10399718;28;96601;-78
2022/03/31 21:03:14;;;;;;;28.30;18.23;;;11.20;99.90;;;9.67;100.00;97709.56;10400549;28;96737;-78
2022/03/31 21:08:17;;;;;;;25.80;16.83;;;11.20;99.90;;;9.69;100.00;97709.31;10415621;28;97113;-78
2022/03/31 21:13:21;;;;;;;31.73;21.90;;;11.20;99.90;;;9.69;100.00;97704.81;10379816;28;96790;-78